createdAt,value
2017-09-21T00:02:06.198Z,5.13
2017-09-21T00:07:08.038Z,5.07
2017-09-21T00:12:09.123Z,5.07
2017-09-21T00:17:10.937Z,5.60
2017-09-21T00:22:11.997Z,6.23
2017-09-21T00:27:13.051Z,6.07
2017-09-21T00:32:14.137Z,5.37
2017-09-21T00:37:15.201Z,5.50
2017-09-21T00:42:16.326Z,5.40
2017-09-21T00:47:17.400Z,6.20
2017-09-21T00:52:18.482Z,7.50
2017-09-21T00:57:19.562Z,10.20
2017-09-21T01:02:20.675Z,6.53
2017-09-21T01:07:21.766Z,5.73
2017-09-21T01:12:29.830Z,6.77
2017-09-21T01:17:30.929Z,6.47
2017-09-21T01:22:32.022Z,6.40
2017-09-21T01:27:33.874Z,6.00
2017-09-21T01:32:34.989Z,7.60
2017-09-21T01:37:36.078Z,7.03
2017-09-21T01:42:37.161Z,6.97
2017-09-21T01:47:38.253Z,7.33
2017-09-21T01:52:40.093Z,6.70
2017-09-21T01:57:41.197Z,6.37
2017-09-21T02:02:42.306Z,6.87
2017-09-21T02:07:43.377Z,7.30
2017-09-21T02:12:44.446Z,7.00
2017-09-21T02:17:45.514Z,5.53
2017-09-21T02:22:47.314Z,5.43
2017-09-21T02:27:48.423Z,6.27
2017-09-21T02:32:49.496Z,7.23
2017-09-21T02:37:50.559Z,7.10
2017-09-21T02:42:52.413Z,7.47
2017-09-21T02:47:53.489Z,10.13
2017-09-21T02:52:55.062Z,8.93
2017-09-21T02:57:57.473Z,9.60
2017-09-21T03:02:58.550Z,9.00
2017-09-21T03:07:59.618Z,8.70
2017-09-21T03:13:00.670Z,7.47
2017-09-21T03:18:01.725Z,11.40
2017-09-21T03:23:02.782Z,9.00
2017-09-21T03:28:07.184Z,8.10
2017-09-21T03:33:09.078Z,7.93
2017-09-21T03:38:10.138Z,11.43
2017-09-21T03:43:11.238Z,8.90
2017-09-21T03:48:12.286Z,9.33
2017-09-21T03:53:13.426Z,10.47
2017-09-21T03:58:14.513Z,7.67
2017-09-21T04:03:15.582Z,7.93
2017-09-21T04:08:16.703Z,7.50
2017-09-21T04:13:17.783Z,9.00
2017-09-21T04:18:18.866Z,11.00
2017-09-21T04:23:19.946Z,10.30
2017-09-21T04:28:21.789Z,11.03
2017-09-21T04:33:22.866Z,11.20
2017-09-21T04:38:23.934Z,11.13
2017-09-21T04:43:25.738Z,9.90
2017-09-21T04:48:26.812Z,11.63
2017-09-21T04:53:27.910Z,12.77
2017-09-21T04:58:28.988Z,12.00
2017-09-21T05:03:32.093Z,11.70
2017-09-21T05:08:33.902Z,15.03
2017-09-21T05:13:34.962Z,12.00
2017-09-21T05:18:36.026Z,12.83
2017-09-21T05:23:37.094Z,14.97
2017-09-21T05:28:38.178Z,14.47
2017-09-21T05:33:39.242Z,14.97
2017-09-21T05:38:40.340Z,12.83
2017-09-21T05:43:41.383Z,15.27
2017-09-21T05:48:42.484Z,12.67
2017-09-21T05:53:43.550Z,15.73
2017-09-21T05:58:44.674Z,16.10
2017-09-21T06:03:45.738Z,13.67
2017-09-21T06:08:46.807Z,15.40
2017-09-21T06:13:47.874Z,15.93
2017-09-21T06:18:52.395Z,17.07
2017-09-21T06:23:53.486Z,16.87
2017-09-21T06:28:54.557Z,11.30
2017-09-21T06:33:55.634Z,13.30
2017-09-21T06:38:56.712Z,14.40
2017-09-21T06:43:58.517Z,11.80
2017-09-21T06:48:59.585Z,13.33
2017-09-21T06:54:00.729Z,13.83
2017-09-21T06:59:01.806Z,14.87
2017-09-21T07:04:02.861Z,15.63
2017-09-21T07:09:03.921Z,16.93
2017-09-21T07:14:04.981Z,16.03
2017-09-21T07:19:06.017Z,15.80
2017-09-21T07:24:07.078Z,17.40
2017-09-21T07:29:08.129Z,16.73
2017-09-21T07:34:09.210Z,16.23
2017-09-21T07:39:10.255Z,15.67
2017-09-21T07:44:11.298Z,19.90
2017-09-21T07:49:12.392Z,19.17
2017-09-21T07:54:13.466Z,19.70
2017-09-21T07:59:14.526Z,17.93
2017-09-21T08:04:15.621Z,19.20
2017-09-21T08:09:16.682Z,18.30
2017-09-21T08:14:21.201Z,19.97
2017-09-21T08:19:23.019Z,19.60
2017-09-21T08:24:24.073Z,18.50
2017-09-21T08:29:25.143Z,16.47
2017-09-21T08:34:26.199Z,17.90
2017-09-21T08:39:27.277Z,17.27
2017-09-21T08:44:28.338Z,18.07
2017-09-21T08:49:36.081Z,15.10
2017-09-21T08:54:41.026Z,15.27
2017-09-21T08:59:42.105Z,14.10
2017-09-21T09:04:43.917Z,13.77
2017-09-21T09:09:48.422Z,13.40
2017-09-21T09:14:54.273Z,15.00
2017-09-21T09:19:58.086Z,13.73
2017-09-21T09:25:04.871Z,15.87
2017-09-21T09:30:12.645Z,15.53
2017-09-21T09:35:13.706Z,13.70
2017-09-21T09:40:14.810Z,11.77
2017-09-21T09:45:15.941Z,10.70
2017-09-21T09:50:17.014Z,11.13
2017-09-21T09:55:18.089Z,11.60
2017-09-21T10:00:19.245Z,10.57
2017-09-21T10:05:20.330Z,9.63
2017-09-21T10:10:22.185Z,8.70
2017-09-21T10:15:23.262Z,10.97
2017-09-21T10:20:25.107Z,9.30
2017-09-21T10:25:26.227Z,11.40
2017-09-21T10:30:30.805Z,8.90
2017-09-21T10:35:31.941Z,7.40
2017-09-21T10:40:33.040Z,10.47
2017-09-21T10:45:34.105Z,11.63
2017-09-21T10:50:35.182Z,9.17
2017-09-21T10:55:37.027Z,9.80
2017-09-21T11:00:38.115Z,9.53
2017-09-21T11:05:39.893Z,9.10
2017-09-21T11:10:41.008Z,10.00
2017-09-21T11:15:42.061Z,8.30
2017-09-21T11:20:43.126Z,8.00
2017-09-21T11:25:44.179Z,6.63
2017-09-21T11:30:45.241Z,6.90
2017-09-21T11:35:46.310Z,7.70
2017-09-21T11:40:47.382Z,8.30
2017-09-21T11:45:48.446Z,8.53
2017-09-21T11:50:50.263Z,8.90
2017-09-21T11:55:51.334Z,7.50
2017-09-21T12:00:52.458Z,7.37
2017-09-21T12:05:53.543Z,6.97
2017-09-21T12:11:00.713Z,7.70
2017-09-21T12:16:05.536Z,7.70
2017-09-21T12:21:06.617Z,6.80
2017-09-21T12:26:07.718Z,5.37
2017-09-21T12:31:08.798Z,6.53
2017-09-21T12:36:09.870Z,5.60
2017-09-21T12:41:10.937Z,6.10
2017-09-21T12:46:12.741Z,5.83
2017-09-21T12:51:13.817Z,6.27
2017-09-21T12:56:14.910Z,5.83
2017-09-21T13:01:16.010Z,5.30
2017-09-21T13:06:17.081Z,6.00
2017-09-21T13:11:18.161Z,5.73
2017-09-21T13:16:19.235Z,6.00
2017-09-21T13:21:20.310Z,4.37
2017-09-21T13:26:27.843Z,5.83
2017-09-21T13:31:28.917Z,4.07
2017-09-21T13:36:29.982Z,5.13
2017-09-21T13:41:31.030Z,6.13
2017-09-21T13:46:32.085Z,4.43
2017-09-21T13:51:33.140Z,3.80
2017-09-21T13:56:51.383Z,6.20
2017-09-21T14:01:59.298Z,3.50
2017-09-21T14:07:01.114Z,3.80
2017-09-21T14:12:02.165Z,4.60
2017-09-21T14:17:11.669Z,4.23
2017-09-21T14:22:12.747Z,3.63
2017-09-21T14:27:17.793Z,4.40
2017-09-21T14:32:33.614Z,3.93
2017-09-21T14:37:35.397Z,4.43
2017-09-21T14:42:39.542Z,4.03
2017-09-21T14:47:44.281Z,3.20
2017-09-21T14:52:45.337Z,3.37
2017-09-21T14:57:50.456Z,3.83
2017-09-21T15:02:53.517Z,5.00
2017-09-21T15:08:06.738Z,5.90
2017-09-21T15:13:07.801Z,4.70
2017-09-21T15:18:08.870Z,4.97
2017-09-21T15:23:09.937Z,3.97
2017-09-21T15:33:46.295Z,4.17
2017-09-21T15:38:47.347Z,4.10
2017-09-21T15:43:48.415Z,4.80
2017-09-21T15:48:49.494Z,3.73
2017-09-21T15:53:50.597Z,5.10
2017-09-21T15:58:51.672Z,6.00
2017-09-21T16:04:05.766Z,5.43
2017-09-21T16:09:29.837Z,3.80
2017-09-21T16:14:46.350Z,4.17
2017-09-21T16:19:47.459Z,3.50
2017-09-21T16:24:48.523Z,3.30
2017-09-21T16:30:03.757Z,3.67
2017-09-21T16:40:43.186Z,3.90
2017-09-21T16:45:44.966Z,3.47
2017-09-21T16:50:57.889Z,4.70
2017-09-21T16:55:59.693Z,3.93
2017-09-21T17:01:06.779Z,4.33
2017-09-21T17:06:17.860Z,4.87
2017-09-21T17:11:27.902Z,5.37
2017-09-21T17:16:40.057Z,5.70
2017-09-21T17:21:43.127Z,5.80
2017-09-21T17:26:45.201Z,4.53
2017-09-21T17:31:46.306Z,5.83
2017-09-21T17:36:47.365Z,4.37
2017-09-21T17:41:52.110Z,4.80
2017-09-21T17:46:53.192Z,4.87
2017-09-21T17:51:55.302Z,5.57
2017-09-21T17:56:56.380Z,6.10
2017-09-21T18:01:57.462Z,5.60
2017-09-21T18:06:58.554Z,7.37
2017-09-21T18:11:59.604Z,8.23
2017-09-21T18:17:00.673Z,4.30
2017-09-21T18:22:01.720Z,5.43
2017-09-21T18:27:02.766Z,5.50
2017-09-21T18:32:03.822Z,7.30
2017-09-21T18:37:05.006Z,8.73
2017-09-21T18:42:06.059Z,7.23
2017-09-21T18:47:07.106Z,6.33
2017-09-21T18:52:08.157Z,5.70
2017-09-21T18:57:09.229Z,8.80
2017-09-21T19:02:10.273Z,6.60
2017-09-21T19:07:11.370Z,11.53
2017-09-21T19:12:12.431Z,7.17
2017-09-21T19:17:13.498Z,5.93
2017-09-21T19:22:14.553Z,7.93
2017-09-21T19:27:15.841Z,8.77
2017-09-21T19:32:17.725Z,10.10
2017-09-21T19:37:18.797Z,7.70
2017-09-21T19:42:19.844Z,8.17
2017-09-21T19:47:21.672Z,9.30
2017-09-21T19:52:22.797Z,9.23
2017-09-21T19:57:23.925Z,7.53
2017-09-21T20:02:25.005Z,8.83
2017-09-21T20:07:26.096Z,7.50
2017-09-21T20:12:27.145Z,7.40
2017-09-21T20:17:28.218Z,7.20
2017-09-21T20:22:29.298Z,7.10
2017-09-21T20:27:30.362Z,6.40
2017-09-21T20:32:31.411Z,8.30
2017-09-21T20:37:32.778Z,6.17
2017-09-21T20:42:34.654Z,6.13
2017-09-21T20:47:35.705Z,9.83
2017-09-21T20:52:36.755Z,6.93
2017-09-21T20:57:37.817Z,7.20
2017-09-21T21:02:38.881Z,7.27
2017-09-21T21:07:39.941Z,6.63
2017-09-21T21:12:41.012Z,7.23
2017-09-21T21:17:42.065Z,6.73
2017-09-21T21:22:43.122Z,7.27
2017-09-21T21:27:44.177Z,7.70
2017-09-21T21:32:45.242Z,6.40
2017-09-21T21:37:46.290Z,6.87
2017-09-21T21:42:47.357Z,6.83
2017-09-21T21:47:48.422Z,6.57
2017-09-21T21:52:49.497Z,8.60
2017-09-21T21:57:50.577Z,7.27
2017-09-21T22:02:51.653Z,8.27
2017-09-21T22:07:52.713Z,8.63
2017-09-21T22:12:53.772Z,7.70
2017-09-21T22:17:54.836Z,8.50
2017-09-21T22:22:55.902Z,7.93
2017-09-21T22:27:56.975Z,12.13
2017-09-21T22:32:58.221Z,9.07
2017-09-21T22:37:59.281Z,9.30
2017-09-21T22:43:00.348Z,8.30
2017-09-21T22:48:02.346Z,8.20
2017-09-21T22:53:03.414Z,7.73
2017-09-21T22:58:05.221Z,7.83
2017-09-21T23:03:06.295Z,7.63
2017-09-21T23:08:07.365Z,9.27
2017-09-21T23:13:08.433Z,7.70
2017-09-21T23:18:09.501Z,8.90
2017-09-21T23:23:10.575Z,8.70
2017-09-21T23:28:11.644Z,10.40
2017-09-21T23:33:13.441Z,7.73
2017-09-21T23:38:14.500Z,7.50
2017-09-21T23:43:15.570Z,8.33
2017-09-21T23:48:16.622Z,9.27
2017-09-21T23:53:17.689Z,9.23
